createdAt,value
2018-06-22T00:01:17.101Z,2.60
2018-06-22T00:03:45.074Z,1.00
2018-06-22T00:06:12.660Z,1.40
2018-06-22T00:08:40.235Z,1.00
2018-06-22T00:11:09.917Z,1.00
2018-06-22T00:13:37.580Z,2.20
2018-06-22T00:16:05.169Z,1.00
2018-06-22T00:18:33.669Z,1.40
2018-06-22T00:21:02.258Z,1.00
2018-06-22T00:23:29.897Z,1.00
2018-06-22T00:26:00.091Z,3.00
2018-06-22T00:28:28.089Z,1.00
2018-06-22T00:30:55.758Z,0.20
2018-06-22T00:33:24.250Z,1.00
2018-06-22T00:35:52.341Z,1.00
2018-06-22T00:38:20.726Z,0.80
2018-06-22T00:40:48.342Z,1.00
2018-06-22T00:43:16.006Z,2.20
2018-06-22T00:45:43.838Z,0.20
2018-06-22T00:48:11.409Z,1.00
2018-06-22T00:50:38.996Z,1.00
2018-06-22T00:53:06.554Z,2.20
2018-06-22T00:55:34.394Z,1.80
2018-06-22T00:58:01.966Z,3.00
2018-06-22T01:00:29.534Z,3.00
2018-06-22T01:02:58.257Z,1.00
2018-06-22T01:05:26.105Z,2.60
2018-06-22T01:07:53.662Z,1.00
2018-06-22T01:10:22.690Z,1.80
2018-06-22T01:12:50.877Z,0.80
2018-06-22T01:15:18.445Z,1.40
2018-06-22T01:17:46.696Z,3.00
2018-06-22T01:20:14.261Z,0.00
2018-06-22T01:22:41.850Z,1.00
2018-06-22T01:25:09.410Z,1.00
2018-06-22T01:27:36.996Z,0.00
2018-06-22T01:30:04.566Z,1.00
2018-06-22T01:32:33.694Z,2.60
2018-06-22T01:35:02.881Z,1.00
2018-06-22T01:37:30.473Z,0.40
2018-06-22T01:39:58.561Z,1.00
2018-06-22T01:42:26.168Z,1.00
2018-06-22T01:44:53.760Z,1.40
2018-06-22T01:47:21.357Z,1.00
2018-06-22T01:49:49.047Z,0.20
2018-06-22T01:52:16.622Z,0.20
2018-06-22T01:54:44.195Z,1.00
2018-06-22T01:57:11.766Z,1.00
2018-06-22T01:59:39.558Z,3.00
2018-06-22T02:02:07.130Z,0.00
2018-06-22T02:04:34.737Z,1.00
2018-06-22T02:07:02.359Z,1.00
2018-06-22T02:09:29.948Z,0.00
2018-06-22T02:11:57.556Z,2.20
2018-06-22T02:14:25.189Z,1.00
2018-06-22T02:16:52.780Z,1.80
2018-06-22T02:19:20.355Z,3.00
2018-06-22T02:21:47.942Z,1.00
2018-06-22T02:24:15.809Z,2.60
2018-06-22T02:26:43.374Z,1.00
2018-06-22T02:29:11.023Z,2.60
2018-06-22T02:31:38.606Z,0.80
2018-06-22T02:34:06.180Z,1.00
2018-06-22T02:36:34.393Z,1.40
2018-06-22T02:39:02.258Z,1.00
2018-06-22T02:41:29.847Z,2.60
2018-06-22T02:43:57.770Z,3.00
2018-06-22T02:46:25.646Z,0.00
2018-06-22T02:48:54.786Z,1.80
2018-06-22T02:51:22.702Z,1.00
2018-06-22T02:53:50.319Z,3.00
2018-06-22T02:56:17.941Z,1.00
2018-06-22T02:58:45.549Z,2.60
2018-06-22T03:01:13.456Z,1.00
2018-06-22T03:03:41.079Z,1.40
2018-06-22T03:06:08.688Z,1.00
2018-06-22T03:08:36.563Z,0.00
2018-06-22T03:11:04.153Z,1.00
2018-06-22T03:13:31.739Z,1.00
2018-06-22T03:16:00.342Z,1.00
2018-06-22T03:18:27.926Z,2.40
2018-06-22T03:20:55.498Z,3.00
2018-06-22T03:23:23.093Z,1.00
2018-06-22T03:25:50.661Z,1.80
2018-06-22T03:28:18.252Z,2.60
2018-06-22T03:30:45.862Z,1.00
2018-06-22T03:33:14.267Z,3.00
2018-06-22T03:35:41.853Z,1.00
2018-06-22T03:38:09.722Z,1.40
2018-06-22T03:40:37.301Z,0.80
2018-06-22T03:43:04.928Z,0.00
2018-06-22T03:45:32.528Z,2.60
2018-06-22T03:48:00.115Z,1.00
2018-06-22T03:50:27.698Z,1.00
2018-06-22T03:52:55.291Z,1.00
2018-06-22T03:55:24.083Z,1.00
2018-06-22T03:57:51.683Z,1.00
2018-06-22T04:00:19.558Z,1.00
2018-06-22T04:02:47.146Z,1.00
2018-06-22T04:05:14.718Z,3.20
2018-06-22T04:07:42.303Z,1.00
2018-06-22T04:10:10.923Z,3.00
2018-06-22T04:12:38.508Z,0.40
2018-06-22T04:15:06.358Z,1.80
2018-06-22T04:17:38.274Z,0.80
2018-06-22T04:20:05.859Z,1.00
2018-06-22T04:22:33.718Z,3.80
2018-06-22T04:25:01.322Z,1.00
2018-06-22T04:27:29.718Z,1.00
2018-06-22T04:29:57.559Z,0.80
2018-06-22T04:32:25.146Z,3.00
2018-06-22T04:34:52.729Z,1.00
2018-06-22T04:37:20.582Z,1.80
2018-06-22T04:39:49.119Z,1.00
2018-06-22T04:42:17.319Z,1.00
2018-06-22T04:44:45.180Z,1.80
2018-06-22T04:47:12.788Z,1.00
2018-06-22T04:49:40.389Z,2.60
2018-06-22T04:52:08.247Z,2.60
2018-06-22T04:54:38.798Z,3.00
2018-06-22T04:57:06.391Z,0.80
2018-06-22T04:59:35.283Z,1.00
2018-06-22T05:02:02.878Z,1.00
2018-06-22T05:04:30.458Z,1.80
2018-06-22T05:07:00.286Z,1.00
2018-06-22T05:09:27.880Z,1.00
2018-06-22T05:11:55.458Z,1.00
2018-06-22T05:14:23.371Z,1.80
2018-06-22T05:16:50.983Z,1.40
2018-06-22T05:19:19.338Z,1.00
2018-06-22T05:21:47.195Z,0.80
2018-06-22T05:24:15.706Z,1.00
2018-06-22T05:26:43.292Z,2.60
2018-06-22T05:29:11.152Z,3.00
2018-06-22T05:31:38.751Z,2.60
2018-06-22T05:34:06.340Z,1.00
2018-06-22T05:36:34.451Z,0.80
2018-06-22T05:39:02.943Z,0.80
2018-06-22T05:41:30.564Z,2.20
2018-06-22T05:43:59.318Z,2.60
2018-06-22T05:46:26.917Z,1.00
2018-06-22T05:48:55.492Z,1.00
2018-06-22T05:51:23.347Z,1.00
2018-06-22T05:53:52.323Z,3.00
2018-06-22T05:56:19.903Z,3.20
2018-06-22T05:58:48.606Z,2.60
2018-06-22T06:01:16.196Z,1.00
2018-06-22T06:03:43.791Z,1.00
2018-06-22T06:06:11.754Z,0.00
2018-06-22T06:08:39.348Z,1.00
2018-06-22T06:11:07.025Z,1.00
2018-06-22T06:13:34.618Z,1.40
2018-06-22T06:16:02.285Z,1.40
2018-06-22T06:18:30.181Z,4.00
2018-06-22T06:20:58.614Z,2.40
2018-06-22T06:23:26.330Z,1.00
2018-06-22T06:25:54.338Z,3.20
2018-06-22T06:28:22.810Z,1.00
2018-06-22T06:30:50.406Z,1.80
2018-06-22T06:33:18.284Z,1.00
2018-06-22T06:35:45.857Z,2.60
2018-06-22T06:38:13.460Z,1.00
2018-06-22T06:40:41.350Z,1.80
2018-06-22T06:43:08.918Z,3.40
2018-06-22T06:45:36.514Z,3.00
2018-06-22T06:48:05.009Z,2.60
2018-06-22T06:50:32.620Z,3.40
2018-06-22T06:53:00.187Z,2.60
2018-06-22T06:55:28.083Z,2.20
2018-06-22T06:57:55.675Z,1.80
2018-06-22T07:00:23.572Z,1.40
2018-06-22T07:02:51.461Z,3.00
2018-06-22T07:05:19.066Z,1.00
2018-06-22T07:07:46.654Z,3.60
2018-06-22T07:10:15.149Z,3.00
2018-06-22T07:12:42.755Z,3.00
2018-06-22T07:15:10.374Z,3.00
2018-06-22T07:20:18.470Z,4.00
2018-06-22T07:22:46.326Z,4.00
2018-06-22T07:25:14.694Z,4.00
2018-06-22T07:27:43.106Z,1.00
2018-06-22T07:30:11.296Z,2.20
2018-06-22T07:32:39.926Z,2.20
2018-06-22T07:35:08.365Z,3.00
2018-06-22T07:37:38.347Z,1.80
2018-06-22T07:40:06.834Z,3.00
2018-06-22T07:42:34.418Z,6.20
2018-06-22T07:45:02.918Z,2.20
2018-06-22T07:47:30.503Z,1.80
2018-06-22T07:49:58.099Z,2.60
2018-06-22T07:52:26.590Z,3.60
2018-06-22T07:54:54.196Z,6.00
2018-06-22T07:57:21.910Z,3.20
2018-06-22T07:59:50.390Z,3.00
2018-06-22T08:02:17.966Z,3.00
2018-06-22T08:04:45.554Z,3.20
2018-06-22T08:07:14.451Z,3.40
2018-06-22T08:09:42.054Z,3.40
2018-06-22T08:12:09.638Z,4.00
2018-06-22T08:14:37.517Z,4.00
2018-06-22T08:17:05.329Z,7.40
2018-06-22T08:19:32.903Z,5.60
2018-06-22T08:22:02.600Z,4.00
2018-06-22T08:24:30.190Z,5.20
2018-06-22T08:26:57.778Z,7.00
2018-06-22T08:29:25.642Z,5.60
2018-06-22T08:31:53.217Z,6.60
2018-06-22T08:34:21.447Z,3.60
2018-06-22T08:36:49.561Z,6.00
2018-06-22T08:39:17.162Z,3.80
2018-06-22T08:41:44.780Z,4.00
2018-06-22T08:44:12.512Z,3.60
2018-06-22T08:46:41.301Z,4.00
2018-06-22T08:49:09.770Z,4.00
2018-06-22T08:51:39.570Z,6.00
2018-06-22T08:54:07.148Z,4.80
2018-06-22T08:56:36.300Z,3.20
2018-06-22T08:59:04.576Z,4.40
2018-06-22T09:01:32.223Z,7.00
2018-06-22T09:04:00.091Z,7.40
2018-06-22T09:06:27.712Z,8.20
2018-06-22T09:08:56.886Z,7.20
2018-06-22T09:11:25.599Z,6.80
2018-06-22T09:13:53.196Z,4.80
2018-06-22T09:16:24.480Z,7.20
2018-06-22T09:18:52.338Z,4.40
2018-06-22T09:21:21.584Z,7.80
2018-06-22T09:23:49.216Z,9.00
2018-06-22T09:26:18.660Z,4.40
2018-06-22T09:28:46.265Z,6.80
2018-06-22T09:31:13.881Z,5.60
2018-06-22T09:33:41.821Z,6.20
2018-06-22T09:36:09.406Z,6.60
2018-06-22T09:38:37.005Z,8.20
2018-06-22T09:41:04.877Z,7.80
2018-06-22T09:43:33.839Z,7.40
2018-06-22T09:46:01.493Z,11.20
2018-06-22T09:48:29.442Z,7.00
2018-06-22T09:50:59.378Z,9.60
2018-06-22T09:53:27.536Z,6.00
2018-06-22T09:56:00.615Z,7.40
2018-06-22T09:58:28.313Z,8.20
2018-06-22T10:00:57.079Z,9.20
2018-06-22T10:03:25.211Z,12.00
2018-06-22T10:05:53.762Z,6.60
2018-06-22T10:08:22.252Z,6.20
2018-06-22T10:10:52.910Z,6.20
2018-06-22T10:13:20.526Z,8.80
2018-06-22T10:15:55.324Z,4.00
2018-06-22T10:18:24.467Z,7.00
2018-06-22T10:20:52.200Z,7.00
2018-06-22T10:23:20.759Z,7.00
2018-06-22T10:25:48.667Z,7.00
2018-06-22T10:28:17.420Z,6.00
2018-06-22T10:30:45.021Z,7.80
2018-06-22T10:33:12.891Z,6.40
2018-06-22T10:35:40.922Z,4.00
2018-06-22T10:38:09.554Z,3.60
2018-06-22T10:40:38.733Z,2.80
2018-06-22T10:43:06.326Z,4.00
2018-06-22T10:45:33.919Z,4.00
2018-06-22T10:48:02.036Z,6.20
2018-06-22T10:50:30.389Z,4.00
2018-06-22T10:52:59.375Z,4.80
2018-06-22T10:55:28.228Z,3.60
2018-06-22T10:58:10.172Z,3.60
2018-06-22T11:00:39.689Z,3.60
2018-06-22T11:03:08.469Z,3.00
2018-06-22T11:05:37.399Z,3.20
2018-06-22T11:08:06.382Z,4.00
2018-06-22T11:10:33.976Z,5.60
2018-06-22T11:13:04.230Z,5.60
2018-06-22T11:15:39.422Z,4.00
2018-06-22T11:18:09.411Z,5.60
2018-06-22T11:20:37.423Z,4.80
2018-06-22T11:23:06.207Z,8.60
2018-06-22T11:25:37.107Z,6.20
2018-06-22T11:28:08.321Z,4.00
2018-06-22T11:30:38.239Z,7.80
2018-06-22T11:33:06.566Z,4.00
2018-06-22T11:35:37.443Z,4.40
2018-06-22T11:38:05.040Z,6.00
2018-06-22T11:40:35.158Z,4.40
2018-06-22T11:43:08.636Z,7.80
2018-06-22T11:45:37.327Z,7.80
2018-06-22T11:48:04.954Z,9.20
2018-06-22T11:50:33.979Z,7.40
2018-06-22T11:53:01.612Z,7.40
2018-06-22T11:55:32.037Z,8.20
2018-06-22T11:58:01.443Z,6.80
2018-06-22T12:00:29.069Z,9.40
2018-06-22T12:02:59.663Z,9.00
2018-06-22T12:05:28.150Z,7.80
2018-06-22T12:07:55.738Z,9.00
2018-06-22T12:10:23.322Z,4.00
2018-06-22T12:12:52.074Z,5.60
2018-06-22T12:15:20.111Z,6.00
2018-06-22T12:17:48.407Z,7.00
2018-06-22T12:20:17.113Z,6.00
2018-06-22T12:22:45.207Z,4.80
2018-06-22T12:25:13.354Z,5.20
2018-06-22T12:27:41.275Z,3.00
2018-06-22T12:30:09.661Z,3.00
2018-06-22T12:32:37.247Z,3.20
2018-06-22T12:35:07.025Z,3.00
2018-06-22T12:37:35.008Z,1.00
2018-06-22T12:40:02.633Z,1.00
2018-06-22T12:42:30.524Z,0.80
2018-06-22T12:44:59.074Z,1.00
2018-06-22T12:47:27.822Z,0.60
2018-06-22T12:49:55.702Z,0.00
2018-06-22T12:52:23.301Z,1.00
2018-06-22T12:54:52.146Z,0.00
2018-06-22T12:57:20.769Z,0.20
2018-06-22T12:59:48.702Z,0.40
2018-06-22T13:02:16.320Z,1.00
2018-06-22T13:04:46.582Z,0.20
2018-06-22T13:07:14.458Z,0.80
2018-06-22T13:09:42.057Z,1.00
2018-06-22T13:12:10.952Z,0.60
2018-06-22T13:14:38.547Z,3.00
2018-06-22T13:17:06.197Z,1.00
2018-06-22T13:19:34.076Z,1.40
2018-06-22T13:22:01.844Z,1.00
2018-06-22T13:24:29.466Z,0.00
2018-06-22T13:26:57.318Z,0.00
2018-06-22T13:29:25.694Z,0.60
2018-06-22T13:31:53.299Z,0.00
2018-06-22T13:34:21.147Z,0.00
2018-06-22T13:36:49.520Z,0.00
2018-06-22T13:39:19.866Z,0.40
2018-06-22T13:41:48.253Z,0.00
2018-06-22T13:44:16.858Z,0.00
2018-06-22T13:46:44.441Z,0.60
2018-06-22T13:49:12.626Z,0.60
2018-06-22T13:51:40.390Z,1.40
2018-06-22T13:54:07.963Z,2.60
2018-06-22T13:56:37.205Z,0.20
2018-06-22T13:59:04.828Z,1.40
2018-06-22T14:01:33.342Z,1.40
2018-06-22T14:04:06.280Z,0.20
2018-06-22T14:06:39.326Z,1.00
2018-06-22T14:09:11.088Z,1.00
2018-06-22T14:11:39.381Z,1.00
2018-06-22T14:14:10.065Z,2.20
2018-06-22T14:16:38.581Z,1.00
2018-06-22T14:19:07.251Z,3.00
2018-06-22T14:21:35.230Z,1.00
2018-06-22T14:24:03.127Z,0.60
2018-06-22T14:26:30.795Z,1.00
2018-06-22T14:28:59.482Z,1.00
2018-06-22T14:31:28.334Z,0.00
2018-06-22T14:33:56.452Z,0.00
2018-06-22T14:36:26.630Z,2.20
2018-06-22T14:38:56.432Z,2.20
2018-06-22T14:41:27.322Z,2.60
2018-06-22T14:43:57.531Z,1.00
2018-06-22T14:46:27.738Z,2.60
2018-06-22T14:48:56.307Z,1.00
2018-06-22T14:51:25.272Z,3.00
2018-06-22T14:53:58.825Z,3.00
2018-06-22T14:56:31.654Z,2.60
2018-06-22T14:59:05.319Z,2.20
2018-06-22T15:01:38.889Z,2.60
2018-06-22T15:04:11.839Z,1.00
2018-06-22T15:06:44.342Z,3.00
2018-06-22T15:09:12.539Z,2.40
2018-06-22T15:11:41.019Z,3.60
2018-06-22T15:14:09.447Z,3.00
2018-06-22T15:16:37.945Z,3.00
2018-06-22T15:19:07.238Z,1.00
2018-06-22T15:21:36.035Z,1.00
2018-06-22T15:24:05.306Z,1.00
2018-06-22T15:26:33.570Z,0.00
2018-06-22T15:29:03.602Z,1.00
2018-06-22T15:31:31.477Z,1.60
2018-06-22T15:34:04.147Z,1.00
2018-06-22T15:36:37.348Z,1.00
2018-06-22T15:39:10.740Z,1.00
2018-06-22T15:41:44.259Z,1.20
2018-06-22T15:44:17.190Z,2.40
2018-06-22T15:46:49.742Z,0.60
2018-06-22T15:49:23.485Z,1.20
2018-06-22T15:51:56.498Z,2.20
2018-06-22T15:55:33.338Z,1.40
2018-06-22T15:58:02.631Z,1.00
2018-06-22T16:00:32.590Z,0.40
2018-06-22T16:03:05.118Z,1.00
2018-06-22T16:05:32.976Z,1.00
2018-06-22T16:08:01.099Z,1.00
2018-06-22T16:10:29.694Z,1.00
2018-06-22T16:12:57.579Z,0.80
2018-06-22T16:15:30.199Z,1.00
2018-06-22T16:18:02.771Z,2.40
2018-06-22T16:20:35.979Z,2.20
2018-06-22T16:23:08.520Z,1.00
2018-06-22T16:25:41.470Z,2.20
2018-06-22T16:28:09.706Z,2.20
2018-06-22T16:30:37.477Z,1.40
2018-06-22T16:33:10.939Z,1.20
2018-06-22T16:35:39.070Z,1.00
2018-06-22T16:38:07.282Z,1.00
2018-06-22T16:40:35.148Z,1.00
2018-06-22T16:43:02.744Z,2.20
2018-06-22T16:45:31.106Z,1.40
2018-06-22T16:47:59.674Z,1.00
2018-06-22T16:50:28.103Z,2.20
2018-06-22T16:52:55.689Z,2.00
2018-06-22T16:55:23.556Z,1.00
2018-06-22T16:57:51.146Z,2.00
2018-06-22T17:00:19.447Z,2.20
2018-06-22T17:02:49.291Z,2.20
2018-06-22T17:05:18.087Z,1.00
2018-06-22T17:07:53.384Z,1.00
2018-06-22T17:10:26.354Z,1.00
2018-06-22T17:12:58.854Z,3.20
2018-06-22T17:15:31.379Z,1.00
2018-06-22T17:18:04.233Z,2.20
2018-06-22T17:20:31.860Z,2.20
2018-06-22T17:23:00.588Z,2.20
2018-06-22T17:25:28.468Z,2.20
2018-06-22T17:27:56.723Z,1.20
2018-06-22T17:30:24.633Z,2.20
2018-06-22T17:32:52.526Z,1.00
2018-06-22T17:35:20.166Z,1.60
2018-06-22T17:37:48.426Z,2.00
2018-06-22T17:40:16.534Z,1.00
2018-06-22T17:42:47.203Z,2.20
2018-06-22T17:45:16.083Z,1.20
2018-06-22T17:47:47.288Z,1.80
2018-06-22T17:50:24.452Z,2.20
2018-06-22T17:52:52.046Z,1.40
2018-06-22T17:55:21.776Z,1.20
2018-06-22T17:57:50.719Z,3.60
2018-06-22T18:00:23.245Z,1.20
2018-06-22T18:02:56.209Z,1.80
2018-06-22T18:05:29.383Z,2.00
2018-06-22T18:07:57.499Z,3.00
2018-06-22T18:10:31.266Z,3.40
2018-06-22T18:13:00.054Z,1.20
2018-06-22T18:15:28.723Z,2.00
2018-06-22T18:17:56.365Z,1.60
2018-06-22T18:20:24.676Z,1.20
2018-06-22T18:22:53.127Z,3.60
2018-06-22T18:25:20.710Z,1.80
2018-06-22T18:27:48.309Z,3.60
2018-06-22T18:30:18.469Z,2.40
2018-06-22T18:32:46.777Z,1.40
2018-06-22T18:35:17.674Z,1.00
2018-06-22T18:37:45.565Z,1.80
2018-06-22T18:40:13.431Z,3.60
2018-06-22T18:42:43.258Z,1.00
2018-06-22T18:45:12.719Z,3.00
2018-06-22T18:47:42.059Z,3.60
2018-06-22T18:50:10.452Z,3.60
2018-06-22T18:54:46.364Z,1.40
2018-06-22T18:57:21.609Z,3.80
2018-06-22T18:59:52.728Z,1.80
2018-06-22T19:02:25.910Z,1.00
2018-06-22T19:04:55.313Z,3.00
2018-06-22T19:07:24.568Z,4.00
2018-06-22T19:09:53.774Z,3.00
2018-06-22T19:12:24.795Z,3.00
2018-06-22T19:14:52.829Z,1.40
2018-06-22T19:17:21.222Z,3.00
2018-06-22T19:19:49.082Z,1.00
2018-06-22T19:22:16.673Z,1.00
2018-06-22T19:24:44.495Z,3.40
2018-06-22T19:27:12.385Z,3.00
2018-06-22T19:29:40.222Z,2.20
2018-06-22T19:32:08.586Z,0.80
2018-06-22T19:34:42.212Z,1.80
2018-06-22T19:37:10.798Z,1.80
2018-06-22T19:39:38.375Z,1.00
2018-06-22T19:42:09.270Z,2.20
2018-06-22T19:44:44.251Z,2.20
2018-06-22T19:47:16.918Z,0.80
2018-06-22T19:49:49.723Z,0.00
2018-06-22T19:52:22.222Z,1.40
2018-06-22T19:54:50.396Z,3.00
2018-06-22T19:57:18.508Z,1.00
2018-06-22T19:59:47.305Z,2.60
2018-06-22T20:02:16.342Z,2.60
2018-06-22T20:04:45.126Z,0.20
2018-06-22T20:07:13.626Z,2.40
2018-06-22T20:09:42.066Z,2.80
2018-06-22T20:12:11.206Z,1.00
2018-06-22T20:14:41.218Z,2.60
2018-06-22T20:17:09.788Z,3.60
2018-06-22T20:19:38.769Z,1.00
2018-06-22T20:22:08.235Z,2.60
2018-06-22T20:24:42.267Z,2.20
2018-06-22T20:27:11.176Z,0.60
2018-06-22T20:29:39.503Z,1.00
2018-06-22T20:32:10.456Z,3.00
2018-06-22T20:34:43.272Z,3.20
2018-06-22T20:37:15.911Z,1.80
2018-06-22T20:39:48.783Z,3.00
2018-06-22T20:42:22.218Z,1.80
2018-06-22T20:44:55.069Z,4.00
2018-06-22T20:49:30.254Z,1.00
2018-06-22T20:52:02.439Z,3.40
2018-06-22T20:54:32.165Z,1.00
2018-06-22T20:56:59.753Z,1.00
2018-06-22T20:59:27.691Z,3.00
2018-06-22T21:01:55.571Z,1.00
2018-06-22T21:04:23.258Z,1.00
2018-06-22T21:06:51.130Z,1.00
2018-06-22T21:09:20.274Z,2.20
2018-06-22T21:11:48.651Z,1.00
2018-06-22T21:14:17.558Z,1.00
2018-06-22T21:16:45.151Z,1.00
2018-06-22T21:19:13.386Z,1.20
2018-06-22T21:21:46.326Z,4.00
2018-06-22T21:24:17.464Z,3.40
2018-06-22T21:26:46.322Z,3.00
2018-06-22T21:29:20.419Z,3.00
2018-06-22T21:31:53.795Z,1.80
2018-06-22T21:34:26.614Z,3.00
2018-06-22T21:36:59.956Z,3.20
2018-06-22T21:39:28.061Z,1.00
2018-06-22T21:41:57.198Z,3.00
2018-06-22T21:44:26.014Z,3.00
2018-06-22T21:46:54.592Z,3.00
2018-06-22T21:49:22.172Z,4.40
2018-06-22T21:51:49.806Z,2.40
2018-06-22T21:54:18.317Z,3.00
2018-06-22T21:56:48.078Z,3.00
2018-06-22T21:59:16.474Z,3.00
2018-06-22T22:01:50.231Z,2.60
2018-06-22T22:04:18.649Z,3.60
2018-06-22T22:06:47.199Z,3.80
2018-06-22T22:09:14.795Z,1.40
2018-06-22T22:11:47.434Z,3.20
2018-06-22T22:14:15.310Z,4.80
2018-06-22T22:16:42.906Z,7.00
2018-06-22T22:19:10.499Z,1.00
2018-06-22T22:21:42.258Z,2.00
2018-06-22T22:24:11.700Z,3.00
2018-06-22T22:26:39.583Z,3.00
2018-06-22T22:29:08.775Z,3.00
2018-06-22T22:31:37.442Z,3.20
2018-06-22T22:34:06.130Z,4.00
2018-06-22T22:36:34.472Z,4.00
2018-06-22T22:39:03.330Z,1.80
2018-06-22T22:41:33.213Z,3.00
2018-06-22T22:44:02.016Z,2.20
2018-06-22T22:46:32.582Z,1.00
2018-06-22T22:49:01.410Z,3.00
2018-06-22T22:51:29.002Z,3.00
2018-06-22T22:53:58.712Z,1.00
2018-06-22T22:56:26.607Z,2.20
2018-06-22T22:58:55.279Z,1.40
2018-06-22T23:01:24.317Z,1.40
2018-06-22T23:03:52.690Z,0.00
2018-06-22T23:06:20.266Z,2.20
2018-06-22T23:08:48.443Z,1.00
2018-06-22T23:11:18.281Z,2.60
2018-06-22T23:13:46.946Z,3.00
2018-06-22T23:16:15.329Z,1.00
2018-06-22T23:18:43.315Z,3.00
2018-06-22T23:21:10.939Z,3.20
2018-06-22T23:23:38.910Z,1.00
2018-06-22T23:26:06.890Z,3.80
2018-06-22T23:28:34.465Z,4.40
2018-06-22T23:31:04.147Z,2.20
2018-06-22T23:33:32.458Z,1.80
2018-06-22T23:36:00.755Z,3.20
2018-06-22T23:38:30.589Z,1.00
2018-06-22T23:40:58.450Z,2.20
2018-06-22T23:43:26.866Z,1.80
2018-06-22T23:45:54.447Z,1.80
2018-06-22T23:48:22.114Z,1.00
2018-06-22T23:50:49.702Z,2.20
2018-06-22T23:53:17.590Z,3.20
2018-06-22T23:55:45.303Z,3.00
2018-06-22T23:58:12.902Z,3.00
